sensor_id;sensor_type;location;lat;lon;timestamp;P1;durP1;ratioP1;P2;durP2;ratioP2
10260;SDS011;5175;42.606;23.388;2022-12-29T00:02:21;23.37;;;16.50;;
10260;SDS011;5175;42.606;23.388;2022-12-29T00:04:49;19.57;;;15.33;;
10260;SDS011;5175;42.606;23.388;2022-12-29T00:07:16;21.83;;;16.87;;
10260;SDS011;5175;42.606;23.388;2022-12-29T00:09:43;20.90;;;17.10;;
10260;SDS011;5175;42.606;23.388;2022-12-29T00:12:10;22.53;;;17.47;;
10260;SDS011;5175;42.606;23.388;2022-12-29T00:14:36;22.20;;;18.23;;
10260;SDS011;5175;42.606;23.388;2022-12-29T00:17:17;23.70;;;17.27;;
10260;SDS011;5175;42.606;23.388;2022-12-29T00:19:45;22.63;;;16.93;;
10260;SDS011;5175;42.606;23.388;2022-12-29T00:22:29;23.57;;;16.43;;
10260;SDS011;5175;42.606;23.388;2022-12-29T00:25:13;25.33;;;18.43;;
10260;SDS011;5175;42.606;23.388;2022-12-29T00:27:58;23.80;;;17.20;;
10260;SDS011;5175;42.606;23.388;2022-12-29T00:30:42;26.03;;;17.57;;
10260;SDS011;5175;42.606;23.388;2022-12-29T00:33:38;24.93;;;17.70;;
10260;SDS011;5175;42.606;23.388;2022-12-29T00:36:24;25.33;;;18.03;;
10260;SDS011;5175;42.606;23.388;2022-12-29T00:38:56;21.43;;;16.63;;
10260;SDS011;5175;42.606;23.388;2022-12-29T00:41:42;23.37;;;17.50;;
10260;SDS011;5175;42.606;23.388;2022-12-29T00:44:26;22.93;;;17.20;;
10260;SDS011;5175;42.606;23.388;2022-12-29T00:46:53;25.13;;;17.17;;
10260;SDS011;5175;42.606;23.388;2022-12-29T00:49:20;22.40;;;17.57;;
10260;SDS011;5175;42.606;23.388;2022-12-29T00:52:00;21.17;;;16.23;;
10260;SDS011;5175;42.606;23.388;2022-12-29T00:54:28;20.70;;;15.47;;
10260;SDS011;5175;42.606;23.388;2022-12-29T00:56:56;21.10;;;16.93;;
10260;SDS011;5175;42.606;23.388;2022-12-29T00:59:23;21.43;;;16.47;;
10260;SDS011;5175;42.606;23.388;2022-12-29T01:01:50;22.40;;;17.27;;
10260;SDS011;5175;42.606;23.388;2022-12-29T01:04:18;22.87;;;17.80;;
10260;SDS011;5175;42.606;23.388;2022-12-29T01:06:45;22.67;;;16.73;;
10260;SDS011;5175;42.606;23.388;2022-12-29T01:09:13;22.77;;;16.67;;
10260;SDS011;5175;42.606;23.388;2022-12-29T01:11:58;21.10;;;16.33;;
10260;SDS011;5175;42.606;23.388;2022-12-29T01:14:24;19.97;;;15.23;;
10260;SDS011;5175;42.606;23.388;2022-12-29T01:16:51;21.97;;;16.50;;
10260;SDS011;5175;42.606;23.388;2022-12-29T01:19:18;22.53;;;16.20;;
10260;SDS011;5175;42.606;23.388;2022-12-29T01:21:46;18.73;;;15.00;;
10260;SDS011;5175;42.606;23.388;2022-12-29T01:24:15;21.17;;;15.43;;
10260;SDS011;5175;42.606;23.388;2022-12-29T01:26:43;20.33;;;16.07;;
10260;SDS011;5175;42.606;23.388;2022-12-29T01:29:09;21.90;;;15.53;;
10260;SDS011;5175;42.606;23.388;2022-12-29T01:31:36;20.27;;;16.13;;
10260;SDS011;5175;42.606;23.388;2022-12-29T01:34:03;19.50;;;15.37;;
10260;SDS011;5175;42.606;23.388;2022-12-29T01:36:30;20.47;;;16.23;;
10260;SDS011;5175;42.606;23.388;2022-12-29T01:38:57;20.43;;;16.20;;
10260;SDS011;5175;42.606;23.388;2022-12-29T01:41:25;20.43;;;16.33;;
10260;SDS011;5175;42.606;23.388;2022-12-29T01:43:53;23.93;;;16.40;;
10260;SDS011;5175;42.606;23.388;2022-12-29T01:46:25;23.57;;;18.03;;
10260;SDS011;5175;42.606;23.388;2022-12-29T01:48:56;24.13;;;17.57;;
10260;SDS011;5175;42.606;23.388;2022-12-29T01:51:31;22.83;;;18.00;;
10260;SDS011;5175;42.606;23.388;2022-12-29T01:54:02;24.87;;;18.07;;
10260;SDS011;5175;42.606;23.388;2022-12-29T01:56:35;21.30;;;16.27;;
10260;SDS011;5175;42.606;23.388;2022-12-29T01:59:04;22.90;;;17.90;;
10260;SDS011;5175;42.606;23.388;2022-12-29T02:01:32;23.67;;;18.67;;
10260;SDS011;5175;42.606;23.388;2022-12-29T02:03:59;24.57;;;18.43;;
10260;SDS011;5175;42.606;23.388;2022-12-29T02:06:28;28.90;;;20.63;;
10260;SDS011;5175;42.606;23.388;2022-12-29T02:08:57;34.07;;;24.87;;
10260;SDS011;5175;42.606;23.388;2022-12-29T02:11:25;27.03;;;20.93;;
10260;SDS011;5175;42.606;23.388;2022-12-29T02:13:54;23.03;;;17.60;;
10260;SDS011;5175;42.606;23.388;2022-12-29T02:16:26;23.97;;;17.93;;
10260;SDS011;5175;42.606;23.388;2022-12-29T02:19:03;26.47;;;20.00;;
10260;SDS011;5175;42.606;23.388;2022-12-29T02:21:56;27.70;;;20.17;;
10260;SDS011;5175;42.606;23.388;2022-12-29T02:27:43;24.40;;;18.87;;
10260;SDS011;5175;42.606;23.388;2022-12-29T02:30:34;23.97;;;18.00;;
10260;SDS011;5175;42.606;23.388;2022-12-29T02:33:08;22.47;;;17.13;;
10260;SDS011;5175;42.606;23.388;2022-12-29T02:35:52;18.67;;;15.17;;
10260;SDS011;5175;42.606;23.388;2022-12-29T02:38:30;21.00;;;15.03;;
10260;SDS011;5175;42.606;23.388;2022-12-29T02:41:08;25.30;;;16.93;;
10260;SDS011;5175;42.606;23.388;2022-12-29T02:43:45;22.47;;;16.43;;
10260;SDS011;5175;42.606;23.388;2022-12-29T02:46:17;21.53;;;16.63;;
10260;SDS011;5175;42.606;23.388;2022-12-29T02:48:54;22.43;;;16.20;;
10260;SDS011;5175;42.606;23.388;2022-12-29T02:51:31;23.33;;;16.23;;
10260;SDS011;5175;42.606;23.388;2022-12-29T02:54:07;20.70;;;15.77;;
10260;SDS011;5175;42.606;23.388;2022-12-29T02:56:51;22.07;;;16.10;;
10260;SDS011;5175;42.606;23.388;2022-12-29T02:59:18;20.20;;;15.30;;
10260;SDS011;5175;42.606;23.388;2022-12-29T03:01:53;18.23;;;13.63;;
10260;SDS011;5175;42.606;23.388;2022-12-29T03:04:59;18.47;;;14.50;;
10260;SDS011;5175;42.606;23.388;2022-12-29T03:07:40;18.70;;;14.17;;
10260;SDS011;5175;42.606;23.388;2022-12-29T03:10:17;18.70;;;14.57;;
10260;SDS011;5175;42.606;23.388;2022-12-29T03:12:53;20.87;;;15.13;;
10260;SDS011;5175;42.606;23.388;2022-12-29T03:15:46;21.17;;;15.40;;
10260;SDS011;5175;42.606;23.388;2022-12-29T03:18:28;18.10;;;14.27;;
10260;SDS011;5175;42.606;23.388;2022-12-29T03:21:03;20.97;;;16.30;;
10260;SDS011;5175;42.606;23.388;2022-12-29T03:23:34;18.60;;;15.17;;
10260;SDS011;5175;42.606;23.388;2022-12-29T03:26:04;20.40;;;15.80;;
10260;SDS011;5175;42.606;23.388;2022-12-29T03:28:35;17.20;;;14.60;;
10260;SDS011;5175;42.606;23.388;2022-12-29T03:31:04;17.17;;;14.53;;
10260;SDS011;5175;42.606;23.388;2022-12-29T03:33:35;18.47;;;14.40;;
10260;SDS011;5175;42.606;23.388;2022-12-29T03:36:06;17.80;;;13.73;;
10260;SDS011;5175;42.606;23.388;2022-12-29T03:38:39;20.33;;;13.93;;
10260;SDS011;5175;42.606;23.388;2022-12-29T03:41:11;23.13;;;17.23;;
10260;SDS011;5175;42.606;23.388;2022-12-29T03:43:42;30.73;;;18.17;;
10260;SDS011;5175;42.606;23.388;2022-12-29T03:46:09;21.47;;;17.03;;
10260;SDS011;5175;42.606;23.388;2022-12-29T03:48:37;25.27;;;17.40;;
10260;SDS011;5175;42.606;23.388;2022-12-29T03:51:03;19.23;;;15.43;;
10260;SDS011;5175;42.606;23.388;2022-12-29T03:53:30;19.57;;;14.97;;
10260;SDS011;5175;42.606;23.388;2022-12-29T03:55:57;19.47;;;15.17;;
10260;SDS011;5175;42.606;23.388;2022-12-29T03:58:24;19.57;;;15.40;;
10260;SDS011;5175;42.606;23.388;2022-12-29T04:00:50;18.17;;;14.97;;
10260;SDS011;5175;42.606;23.388;2022-12-29T04:03:17;19.47;;;14.70;;
10260;SDS011;5175;42.606;23.388;2022-12-29T04:05:45;20.13;;;15.73;;
10260;SDS011;5175;42.606;23.388;2022-12-29T04:08:12;18.93;;;14.70;;
10260;SDS011;5175;42.606;23.388;2022-12-29T04:10:39;17.50;;;14.50;;
10260;SDS011;5175;42.606;23.388;2022-12-29T04:13:06;21.70;;;16.67;;
10260;SDS011;5175;42.606;23.388;2022-12-29T04:15:32;19.90;;;16.83;;
10260;SDS011;5175;42.606;23.388;2022-12-29T04:18:00;21.80;;;17.57;;
10260;SDS011;5175;42.606;23.388;2022-12-29T04:20:26;20.20;;;16.03;;
10260;SDS011;5175;42.606;23.388;2022-12-29T04:23:20;21.37;;;16.43;;
10260;SDS011;5175;42.606;23.388;2022-12-29T04:25:47;20.77;;;15.93;;
10260;SDS011;5175;42.606;23.388;2022-12-29T04:28:14;19.97;;;15.33;;
10260;SDS011;5175;42.606;23.388;2022-12-29T04:30:41;20.70;;;15.43;;
10260;SDS011;5175;42.606;23.388;2022-12-29T04:33:09;18.97;;;15.03;;
10260;SDS011;5175;42.606;23.388;2022-12-29T04:35:36;18.67;;;14.60;;
10260;SDS011;5175;42.606;23.388;2022-12-29T04:38:03;18.53;;;15.27;;
10260;SDS011;5175;42.606;23.388;2022-12-29T04:40:31;22.00;;;16.37;;
10260;SDS011;5175;42.606;23.388;2022-12-29T04:42:58;19.93;;;15.27;;
10260;SDS011;5175;42.606;23.388;2022-12-29T04:45:24;19.30;;;15.70;;
10260;SDS011;5175;42.606;23.388;2022-12-29T04:47:51;20.87;;;15.83;;
10260;SDS011;5175;42.606;23.388;2022-12-29T04:50:18;20.17;;;14.97;;
10260;SDS011;5175;42.606;23.388;2022-12-29T04:52:44;19.63;;;15.50;;
10260;SDS011;5175;42.606;23.388;2022-12-29T04:55:11;18.10;;;14.10;;
10260;SDS011;5175;42.606;23.388;2022-12-29T04:57:39;20.70;;;15.33;;
10260;SDS011;5175;42.606;23.388;2022-12-29T05:00:06;20.07;;;14.90;;
10260;SDS011;5175;42.606;23.388;2022-12-29T05:02:34;22.73;;;16.47;;
10260;SDS011;5175;42.606;23.388;2022-12-29T05:05:01;21.23;;;16.77;;
10260;SDS011;5175;42.606;23.388;2022-12-29T05:07:28;20.03;;;15.93;;
10260;SDS011;5175;42.606;23.388;2022-12-29T05:09:55;21.17;;;15.90;;
10260;SDS011;5175;42.606;23.388;2022-12-29T05:12:21;20.90;;;15.83;;
10260;SDS011;5175;42.606;23.388;2022-12-29T05:14:49;19.97;;;15.30;;
10260;SDS011;5175;42.606;23.388;2022-12-29T05:17:16;18.27;;;14.90;;
10260;SDS011;5175;42.606;23.388;2022-12-29T05:19:43;18.27;;;14.87;;
10260;SDS011;5175;42.606;23.388;2022-12-29T05:22:09;19.13;;;14.53;;
10260;SDS011;5175;42.606;23.388;2022-12-29T05:24:36;18.80;;;14.07;;
10260;SDS011;5175;42.606;23.388;2022-12-29T05:27:03;19.20;;;15.33;;
10260;SDS011;5175;42.606;23.388;2022-12-29T05:29:29;19.13;;;15.17;;
10260;SDS011;5175;42.606;23.388;2022-12-29T05:31:57;18.07;;;14.53;;
10260;SDS011;5175;42.606;23.388;2022-12-29T05:34:24;19.60;;;15.00;;
10260;SDS011;5175;42.606;23.388;2022-12-29T05:36:51;18.80;;;14.97;;
10260;SDS011;5175;42.606;23.388;2022-12-29T05:39:18;18.90;;;14.27;;
10260;SDS011;5175;42.606;23.388;2022-12-29T05:41:45;17.30;;;13.70;;
10260;SDS011;5175;42.606;23.388;2022-12-29T05:44:12;17.40;;;13.33;;
10260;SDS011;5175;42.606;23.388;2022-12-29T05:46:39;17.70;;;14.17;;
10260;SDS011;5175;42.606;23.388;2022-12-29T05:49:07;17.73;;;13.80;;
10260;SDS011;5175;42.606;23.388;2022-12-29T05:51:33;24.20;;;17.87;;
10260;SDS011;5175;42.606;23.388;2022-12-29T05:54:00;22.43;;;18.33;;
10260;SDS011;5175;42.606;23.388;2022-12-29T05:56:27;18.50;;;15.10;;
10260;SDS011;5175;42.606;23.388;2022-12-29T05:58:54;26.93;;;17.40;;
10260;SDS011;5175;42.606;23.388;2022-12-29T06:01:20;18.97;;;15.30;;
10260;SDS011;5175;42.606;23.388;2022-12-29T06:03:47;24.97;;;15.33;;
10260;SDS011;5175;42.606;23.388;2022-12-29T06:06:15;17.63;;;14.80;;
10260;SDS011;5175;42.606;23.388;2022-12-29T06:08:42;18.40;;;15.07;;
10260;SDS011;5175;42.606;23.388;2022-12-29T06:11:08;18.33;;;15.33;;
10260;SDS011;5175;42.606;23.388;2022-12-29T06:13:36;17.93;;;14.37;;
10260;SDS011;5175;42.606;23.388;2022-12-29T06:16:02;16.23;;;13.33;;
10260;SDS011;5175;42.606;23.388;2022-12-29T06:18:29;17.17;;;13.83;;
10260;SDS011;5175;42.606;23.388;2022-12-29T06:20:58;18.13;;;13.93;;
10260;SDS011;5175;42.606;23.388;2022-12-29T06:23:27;16.60;;;13.80;;
10260;SDS011;5175;42.606;23.388;2022-12-29T06:25:54;16.37;;;13.17;;
10260;SDS011;5175;42.606;23.388;2022-12-29T06:28:21;17.73;;;13.33;;
10260;SDS011;5175;42.606;23.388;2022-12-29T06:30:48;18.17;;;14.73;;
10260;SDS011;5175;42.606;23.388;2022-12-29T06:33:15;21.60;;;15.87;;
10260;SDS011;5175;42.606;23.388;2022-12-29T06:35:41;18.03;;;14.70;;
10260;SDS011;5175;42.606;23.388;2022-12-29T06:38:08;19.03;;;14.90;;
10260;SDS011;5175;42.606;23.388;2022-12-29T06:40:37;20.13;;;16.50;;
10260;SDS011;5175;42.606;23.388;2022-12-29T06:43:03;18.33;;;15.33;;
10260;SDS011;5175;42.606;23.388;2022-12-29T06:45:30;18.83;;;14.73;;
10260;SDS011;5175;42.606;23.388;2022-12-29T06:47:57;20.97;;;16.47;;
10260;SDS011;5175;42.606;23.388;2022-12-29T06:50:23;19.73;;;15.57;;
10260;SDS011;5175;42.606;23.388;2022-12-29T06:52:50;21.57;;;15.33;;
10260;SDS011;5175;42.606;23.388;2022-12-29T06:55:17;16.57;;;13.87;;
10260;SDS011;5175;42.606;23.388;2022-12-29T06:57:45;15.73;;;13.73;;
10260;SDS011;5175;42.606;23.388;2022-12-29T07:00:12;17.20;;;14.10;;
10260;SDS011;5175;42.606;23.388;2022-12-29T07:02:39;17.07;;;13.13;;
10260;SDS011;5175;42.606;23.388;2022-12-29T07:05:06;16.53;;;12.60;;
10260;SDS011;5175;42.606;23.388;2022-12-29T07:07:34;16.90;;;13.60;;
10260;SDS011;5175;42.606;23.388;2022-12-29T07:10:01;15.70;;;13.07;;
10260;SDS011;5175;42.606;23.388;2022-12-29T07:12:27;18.53;;;13.90;;
10260;SDS011;5175;42.606;23.388;2022-12-29T07:14:55;17.83;;;14.83;;
10260;SDS011;5175;42.606;23.388;2022-12-29T07:17:22;14.93;;;12.33;;
10260;SDS011;5175;42.606;23.388;2022-12-29T07:19:49;17.17;;;13.87;;
10260;SDS011;5175;42.606;23.388;2022-12-29T07:22:16;15.37;;;12.77;;
10260;SDS011;5175;42.606;23.388;2022-12-29T07:24:42;17.50;;;13.47;;
10260;SDS011;5175;42.606;23.388;2022-12-29T07:27:09;17.13;;;13.83;;
10260;SDS011;5175;42.606;23.388;2022-12-29T07:29:36;16.63;;;13.87;;
10260;SDS011;5175;42.606;23.388;2022-12-29T07:32:04;17.83;;;14.33;;
10260;SDS011;5175;42.606;23.388;2022-12-29T07:34:31;21.27;;;17.63;;
10260;SDS011;5175;42.606;23.388;2022-12-29T07:36:58;21.20;;;16.87;;
10260;SDS011;5175;42.606;23.388;2022-12-29T07:39:24;19.13;;;15.63;;
10260;SDS011;5175;42.606;23.388;2022-12-29T07:41:51;18.57;;;15.17;;
10260;SDS011;5175;42.606;23.388;2022-12-29T07:44:18;20.43;;;15.60;;
10260;SDS011;5175;42.606;23.388;2022-12-29T07:46:44;21.53;;;17.47;;
10260;SDS011;5175;42.606;23.388;2022-12-29T07:49:13;18.80;;;15.13;;
10260;SDS011;5175;42.606;23.388;2022-12-29T07:51:39;19.30;;;15.30;;
10260;SDS011;5175;42.606;23.388;2022-12-29T07:54:06;20.20;;;16.10;;
10260;SDS011;5175;42.606;23.388;2022-12-29T07:56:33;18.53;;;15.20;;
10260;SDS011;5175;42.606;23.388;2022-12-29T07:59:00;18.43;;;14.53;;
10260;SDS011;5175;42.606;23.388;2022-12-29T08:01:26;17.60;;;14.00;;
10260;SDS011;5175;42.606;23.388;2022-12-29T08:03:53;18.47;;;14.40;;
10260;SDS011;5175;42.606;23.388;2022-12-29T08:06:21;16.87;;;14.17;;
10260;SDS011;5175;42.606;23.388;2022-12-29T08:08:48;18.57;;;14.67;;
10260;SDS011;5175;42.606;23.388;2022-12-29T08:11:15;18.97;;;14.30;;
10260;SDS011;5175;42.606;23.388;2022-12-29T08:13:41;18.10;;;13.97;;
10260;SDS011;5175;42.606;23.388;2022-12-29T08:16:08;17.87;;;14.30;;
10260;SDS011;5175;42.606;23.388;2022-12-29T08:18:35;17.77;;;14.80;;
10260;SDS011;5175;42.606;23.388;2022-12-29T08:21:02;18.03;;;14.90;;
10260;SDS011;5175;42.606;23.388;2022-12-29T08:23:30;18.63;;;15.67;;
10260;SDS011;5175;42.606;23.388;2022-12-29T08:25:57;18.80;;;14.97;;
10260;SDS011;5175;42.606;23.388;2022-12-29T08:28:24;20.03;;;16.33;;
10260;SDS011;5175;42.606;23.388;2022-12-29T08:30:51;21.07;;;16.57;;
10260;SDS011;5175;42.606;23.388;2022-12-29T08:33:18;18.43;;;15.50;;
10260;SDS011;5175;42.606;23.388;2022-12-29T08:35:45;18.80;;;16.40;;
10260;SDS011;5175;42.606;23.388;2022-12-29T08:38:12;18.83;;;15.73;;
10260;SDS011;5175;42.606;23.388;2022-12-29T08:40:40;20.23;;;16.40;;
10260;SDS011;5175;42.606;23.388;2022-12-29T08:43:06;19.37;;;16.07;;
10260;SDS011;5175;42.606;23.388;2022-12-29T08:45:33;19.67;;;16.80;;
10260;SDS011;5175;42.606;23.388;2022-12-29T08:48:00;19.67;;;15.83;;
10260;SDS011;5175;42.606;23.388;2022-12-29T08:50:27;43.80;;;20.07;;
10260;SDS011;5175;42.606;23.388;2022-12-29T08:52:54;20.77;;;15.97;;
10260;SDS011;5175;42.606;23.388;2022-12-29T08:55:20;19.10;;;15.30;;
10260;SDS011;5175;42.606;23.388;2022-12-29T08:57:48;18.10;;;15.23;;
10260;SDS011;5175;42.606;23.388;2022-12-29T09:00:15;22.77;;;16.33;;
10260;SDS011;5175;42.606;23.388;2022-12-29T09:02:42;21.23;;;17.33;;
10260;SDS011;5175;42.606;23.388;2022-12-29T09:05:09;20.93;;;17.00;;
10260;SDS011;5175;42.606;23.388;2022-12-29T09:07:36;19.23;;;15.77;;
10260;SDS011;5175;42.606;23.388;2022-12-29T09:10:03;20.90;;;16.30;;
10260;SDS011;5175;42.606;23.388;2022-12-29T09:12:30;23.03;;;17.23;;
10260;SDS011;5175;42.606;23.388;2022-12-29T09:14:58;20.87;;;17.30;;
10260;SDS011;5175;42.606;23.388;2022-12-29T09:17:25;21.17;;;17.80;;
10260;SDS011;5175;42.606;23.388;2022-12-29T09:20:07;20.53;;;17.23;;
10260;SDS011;5175;42.606;23.388;2022-12-29T09:22:35;22.50;;;17.90;;
10260;SDS011;5175;42.606;23.388;2022-12-29T09:25:02;26.27;;;18.53;;
10260;SDS011;5175;42.606;23.388;2022-12-29T09:27:29;23.07;;;18.57;;
10260;SDS011;5175;42.606;23.388;2022-12-29T09:29:56;25.50;;;20.47;;
10260;SDS011;5175;42.606;23.388;2022-12-29T09:32:24;24.23;;;19.13;;
10260;SDS011;5175;42.606;23.388;2022-12-29T09:34:51;24.80;;;20.90;;
10260;SDS011;5175;42.606;23.388;2022-12-29T09:37:17;24.33;;;20.30;;
10260;SDS011;5175;42.606;23.388;2022-12-29T09:39:44;24.90;;;20.47;;
10260;SDS011;5175;42.606;23.388;2022-12-29T09:42:12;25.73;;;20.83;;
10260;SDS011;5175;42.606;23.388;2022-12-29T09:44:50;27.23;;;20.47;;
10260;SDS011;5175;42.606;23.388;2022-12-29T09:47:28;25.57;;;21.13;;
10260;SDS011;5175;42.606;23.388;2022-12-29T09:49:56;25.73;;;21.77;;
10260;SDS011;5175;42.606;23.388;2022-12-29T09:52:28;26.87;;;21.33;;
10260;SDS011;5175;42.606;23.388;2022-12-29T09:54:58;26.90;;;20.63;;
10260;SDS011;5175;42.606;23.388;2022-12-29T09:57:29;24.33;;;21.37;;
10260;SDS011;5175;42.606;23.388;2022-12-29T10:00:03;26.93;;;21.90;;
10260;SDS011;5175;42.606;23.388;2022-12-29T10:02:39;28.27;;;24.57;;
10260;SDS011;5175;42.606;23.388;2022-12-29T10:05:13;28.63;;;24.10;;
10260;SDS011;5175;42.606;23.388;2022-12-29T10:07:51;29.83;;;25.50;;
10260;SDS011;5175;42.606;23.388;2022-12-29T10:10:29;30.67;;;25.57;;
10260;SDS011;5175;42.606;23.388;2022-12-29T10:13:07;59.07;;;35.63;;
10260;SDS011;5175;42.606;23.388;2022-12-29T10:15:44;36.50;;;28.40;;
10260;SDS011;5175;42.606;23.388;2022-12-29T10:18:30;49.10;;;37.03;;
10260;SDS011;5175;42.606;23.388;2022-12-29T10:21:08;33.13;;;26.30;;
10260;SDS011;5175;42.606;23.388;2022-12-29T10:23:47;35.93;;;27.87;;
10260;SDS011;5175;42.606;23.388;2022-12-29T10:26:19;29.90;;;25.23;;
10260;SDS011;5175;42.606;23.388;2022-12-29T10:28:48;31.27;;;25.93;;
10260;SDS011;5175;42.606;23.388;2022-12-29T10:31:19;30.60;;;25.80;;
10260;SDS011;5175;42.606;23.388;2022-12-29T10:33:50;30.27;;;25.23;;
10260;SDS011;5175;42.606;23.388;2022-12-29T10:36:24;33.97;;;27.50;;
10260;SDS011;5175;42.606;23.388;2022-12-29T10:39:02;29.80;;;25.37;;
10260;SDS011;5175;42.606;23.388;2022-12-29T10:41:38;29.90;;;24.93;;
10260;SDS011;5175;42.606;23.388;2022-12-29T10:44:10;31.10;;;26.27;;
10260;SDS011;5175;42.606;23.388;2022-12-29T10:46:40;32.30;;;27.53;;
10260;SDS011;5175;42.606;23.388;2022-12-29T10:49:13;28.70;;;25.60;;
10260;SDS011;5175;42.606;23.388;2022-12-29T10:51:44;33.93;;;27.53;;
10260;SDS011;5175;42.606;23.388;2022-12-29T10:54:14;24.87;;;22.10;;
10260;SDS011;5175;42.606;23.388;2022-12-29T10:56:47;24.00;;;20.43;;
10260;SDS011;5175;42.606;23.388;2022-12-29T10:59:19;20.83;;;18.57;;
10260;SDS011;5175;42.606;23.388;2022-12-29T11:01:51;21.30;;;18.13;;
10260;SDS011;5175;42.606;23.388;2022-12-29T11:04:33;17.53;;;15.63;;
10260;SDS011;5175;42.606;23.388;2022-12-29T11:07:09;27.90;;;20.60;;
10260;SDS011;5175;42.606;23.388;2022-12-29T11:09:37;23.23;;;20.73;;
10260;SDS011;5175;42.606;23.388;2022-12-29T11:12:17;23.10;;;19.07;;
10260;SDS011;5175;42.606;23.388;2022-12-29T11:14:46;22.03;;;19.10;;
10260;SDS011;5175;42.606;23.388;2022-12-29T11:17:14;22.90;;;20.33;;
10260;SDS011;5175;42.606;23.388;2022-12-29T11:19:43;25.77;;;21.37;;
10260;SDS011;5175;42.606;23.388;2022-12-29T11:22:13;24.53;;;21.47;;
10260;SDS011;5175;42.606;23.388;2022-12-29T11:24:47;29.87;;;23.83;;
10260;SDS011;5175;42.606;23.388;2022-12-29T11:27:15;27.17;;;23.67;;
10260;SDS011;5175;42.606;23.388;2022-12-29T11:29:44;26.30;;;22.27;;
10260;SDS011;5175;42.606;23.388;2022-12-29T11:32:12;24.67;;;21.97;;
10260;SDS011;5175;42.606;23.388;2022-12-29T11:34:45;25.37;;;20.83;;
10260;SDS011;5175;42.606;23.388;2022-12-29T11:37:12;25.90;;;21.90;;
10260;SDS011;5175;42.606;23.388;2022-12-29T11:39:43;24.17;;;21.43;;
10260;SDS011;5175;42.606;23.388;2022-12-29T11:42:18;27.90;;;22.87;;
10260;SDS011;5175;42.606;23.388;2022-12-29T11:44:49;26.07;;;22.10;;
10260;SDS011;5175;42.606;23.388;2022-12-29T11:47:22;30.13;;;24.43;;
10260;SDS011;5175;42.606;23.388;2022-12-29T11:49:55;30.43;;;23.53;;
10260;SDS011;5175;42.606;23.388;2022-12-29T11:52:25;26.13;;;23.03;;
10260;SDS011;5175;42.606;23.388;2022-12-29T11:54:54;27.60;;;22.23;;
10260;SDS011;5175;42.606;23.388;2022-12-29T11:57:23;28.57;;;22.87;;
10260;SDS011;5175;42.606;23.388;2022-12-29T11:59:51;26.00;;;21.70;;
10260;SDS011;5175;42.606;23.388;2022-12-29T12:02:22;24.17;;;20.57;;
10260;SDS011;5175;42.606;23.388;2022-12-29T12:05:05;24.17;;;20.53;;
10260;SDS011;5175;42.606;23.388;2022-12-29T12:07:38;23.07;;;20.43;;
10260;SDS011;5175;42.606;23.388;2022-12-29T12:10:11;25.60;;;19.73;;
10260;SDS011;5175;42.606;23.388;2022-12-29T12:12:45;23.40;;;19.97;;
10260;SDS011;5175;42.606;23.388;2022-12-29T12:15:17;22.80;;;20.10;;
10260;SDS011;5175;42.606;23.388;2022-12-29T12:17:50;23.40;;;19.37;;
10260;SDS011;5175;42.606;23.388;2022-12-29T12:20:22;20.90;;;18.60;;
10260;SDS011;5175;42.606;23.388;2022-12-29T12:23:02;23.03;;;20.30;;
10260;SDS011;5175;42.606;23.388;2022-12-29T12:25:37;23.47;;;20.13;;
10260;SDS011;5175;42.606;23.388;2022-12-29T12:28:10;23.87;;;20.87;;
10260;SDS011;5175;42.606;23.388;2022-12-29T12:30:40;23.17;;;20.57;;
10260;SDS011;5175;42.606;23.388;2022-12-29T12:33:15;25.87;;;20.10;;
10260;SDS011;5175;42.606;23.388;2022-12-29T12:35:51;25.00;;;22.30;;
10260;SDS011;5175;42.606;23.388;2022-12-29T12:38:31;26.50;;;21.17;;
10260;SDS011;5175;42.606;23.388;2022-12-29T12:41:07;23.03;;;20.57;;
10260;SDS011;5175;42.606;23.388;2022-12-29T12:43:39;25.97;;;21.57;;
10260;SDS011;5175;42.606;23.388;2022-12-29T12:46:15;25.80;;;22.07;;
10260;SDS011;5175;42.606;23.388;2022-12-29T12:49:03;29.90;;;23.60;;
10260;SDS011;5175;42.606;23.388;2022-12-29T12:51:44;31.13;;;23.00;;
10260;SDS011;5175;42.606;23.388;2022-12-29T12:54:21;28.70;;;22.97;;
10260;SDS011;5175;42.606;23.388;2022-12-29T12:57:00;24.90;;;22.20;;
10260;SDS011;5175;42.606;23.388;2022-12-29T12:59:40;26.20;;;21.83;;
10260;SDS011;5175;42.606;23.388;2022-12-29T13:02:18;25.27;;;20.87;;
10260;SDS011;5175;42.606;23.388;2022-12-29T13:05:10;24.63;;;21.83;;
10260;SDS011;5175;42.606;23.388;2022-12-29T13:07:50;27.17;;;21.03;;
10260;SDS011;5175;42.606;23.388;2022-12-29T13:10:30;29.80;;;22.73;;
10260;SDS011;5175;42.606;23.388;2022-12-29T13:13:09;25.13;;;21.70;;
10260;SDS011;5175;42.606;23.388;2022-12-29T13:15:52;26.40;;;21.83;;
10260;SDS011;5175;42.606;23.388;2022-12-29T13:18:29;26.97;;;21.77;;
10260;SDS011;5175;42.606;23.388;2022-12-29T13:21:05;25.57;;;21.10;;
10260;SDS011;5175;42.606;23.388;2022-12-29T13:23:43;25.67;;;22.30;;
10260;SDS011;5175;42.606;23.388;2022-12-29T13:26:17;26.53;;;21.33;;
10260;SDS011;5175;42.606;23.388;2022-12-29T13:28:52;22.60;;;19.87;;
10260;SDS011;5175;42.606;23.388;2022-12-29T13:31:25;24.57;;;21.57;;
10260;SDS011;5175;42.606;23.388;2022-12-29T13:34:00;26.93;;;22.23;;
10260;SDS011;5175;42.606;23.388;2022-12-29T13:36:42;25.80;;;23.03;;
10260;SDS011;5175;42.606;23.388;2022-12-29T13:39:19;25.97;;;23.20;;
10260;SDS011;5175;42.606;23.388;2022-12-29T13:41:50;25.17;;;22.37;;
10260;SDS011;5175;42.606;23.388;2022-12-29T13:44:20;23.67;;;21.03;;
10260;SDS011;5175;42.606;23.388;2022-12-29T13:46:50;29.33;;;22.47;;
10260;SDS011;5175;42.606;23.388;2022-12-29T13:49:18;25.80;;;20.60;;
10260;SDS011;5175;42.606;23.388;2022-12-29T13:51:47;26.03;;;21.40;;
10260;SDS011;5175;42.606;23.388;2022-12-29T13:54:21;24.37;;;21.43;;
10260;SDS011;5175;42.606;23.388;2022-12-29T13:56:56;24.00;;;21.03;;
10260;SDS011;5175;42.606;23.388;2022-12-29T13:59:35;24.13;;;21.57;;
10260;SDS011;5175;42.606;23.388;2022-12-29T14:02:09;28.63;;;21.53;;
10260;SDS011;5175;42.606;23.388;2022-12-29T14:04:55;24.60;;;21.07;;
10260;SDS011;5175;42.606;23.388;2022-12-29T14:07:23;27.13;;;21.63;;
10260;SDS011;5175;42.606;23.388;2022-12-29T14:09:51;27.50;;;21.77;;
10260;SDS011;5175;42.606;23.388;2022-12-29T14:12:20;26.30;;;20.67;;
10260;SDS011;5175;42.606;23.388;2022-12-29T14:14:53;32.37;;;23.23;;
10260;SDS011;5175;42.606;23.388;2022-12-29T14:17:27;27.07;;;22.83;;
10260;SDS011;5175;42.606;23.388;2022-12-29T14:19:54;28.70;;;22.17;;
10260;SDS011;5175;42.606;23.388;2022-12-29T14:22:24;34.23;;;25.70;;
10260;SDS011;5175;42.606;23.388;2022-12-29T14:24:53;33.23;;;23.97;;
10260;SDS011;5175;42.606;23.388;2022-12-29T14:33:18;32.70;;;25.10;;
10260;SDS011;5175;42.606;23.388;2022-12-29T14:35:46;27.53;;;22.43;;
10260;SDS011;5175;42.606;23.388;2022-12-29T14:38:18;35.17;;;25.43;;
10260;SDS011;5175;42.606;23.388;2022-12-29T14:40:49;30.17;;;23.73;;
10260;SDS011;5175;42.606;23.388;2022-12-29T14:43:23;31.60;;;24.97;;
10260;SDS011;5175;42.606;23.388;2022-12-29T14:45:56;31.53;;;24.53;;
10260;SDS011;5175;42.606;23.388;2022-12-29T14:48:30;35.33;;;25.43;;
10260;SDS011;5175;42.606;23.388;2022-12-29T14:51:01;40.97;;;27.07;;
10260;SDS011;5175;42.606;23.388;2022-12-29T14:53:42;34.50;;;26.67;;